createdAt,value
2023-01-19T00:00:23.475Z,100785.81
2023-01-19T00:02:51.672Z,100781.41
2023-01-19T00:05:19.454Z,100791.13
2023-01-19T00:07:46.998Z,100778.84
2023-01-19T00:10:14.515Z,100778.84
2023-01-19T00:12:42.549Z,100769.19
2023-01-19T00:15:10.759Z,100784.09
2023-01-19T00:17:41.180Z,100773.47
2023-01-19T00:20:09.934Z,100777.00
2023-01-19T00:22:37.465Z,100784.88
2023-01-19T00:25:05.350Z,100788.31
2023-01-19T00:27:35.079Z,100788.44
2023-01-19T00:30:02.517Z,100784.03
2023-01-19T00:32:30.601Z,100794.59
2023-01-19T00:34:58.077Z,100799.97
2023-01-19T00:37:25.589Z,100791.16
2023-01-19T00:39:53.303Z,100809.56
2023-01-19T00:42:39.555Z,100813.88
2023-01-19T00:45:12.945Z,100809.69
2023-01-19T00:47:41.138Z,100803.63
2023-01-19T00:50:11.890Z,100802.09
2023-01-19T00:52:41.142Z,100809.78
2023-01-19T00:55:11.560Z,100818.56
2023-01-19T00:57:40.525Z,100808.06
2023-01-19T01:00:11.823Z,100832.53
2023-01-19T01:02:41.169Z,100814.94
2023-01-19T01:05:09.611Z,100814.94
2023-01-19T01:07:41.230Z,100806.25
2023-01-19T01:10:10.703Z,100804.53
2023-01-19T01:12:39.280Z,100804.66
2023-01-19T01:15:10.282Z,100807.28
2023-01-19T01:17:47.678Z,100810.75
2023-01-19T01:20:23.869Z,100798.41
2023-01-19T01:22:53.878Z,100782.88
2023-01-19T01:25:23.812Z,100785.56
2023-01-19T01:27:51.777Z,100780.31
2023-01-19T01:30:20.283Z,100783.91
2023-01-19T01:32:48.688Z,100780.31
2023-01-19T01:35:17.260Z,100779.44
2023-01-19T01:37:45.609Z,100777.59
2023-01-19T01:40:15.789Z,100791.56
2023-01-19T01:42:44.279Z,100789.03
2023-01-19T01:45:30.317Z,100790.72
2023-01-19T01:48:22.442Z,100793.28
2023-01-19T01:51:26.142Z,100787.25
2023-01-19T01:53:56.645Z,100796.88
2023-01-19T01:56:27.874Z,100799.53
2023-01-19T01:58:55.653Z,100795.38
2023-01-19T02:01:41.758Z,100818.78
2023-01-19T02:04:09.605Z,100792.59
2023-01-19T02:06:56.461Z,100801.22
2023-01-19T02:09:45.143Z,100807.50
2023-01-19T02:12:31.990Z,100822.25
2023-01-19T02:14:59.518Z,100832.75
2023-01-19T02:17:27.252Z,100824.00
2023-01-19T02:19:54.958Z,100837.38
2023-01-19T02:22:36.086Z,100841.69
2023-01-19T02:25:05.514Z,100846.81
2023-01-19T02:27:34.107Z,100847.03
2023-01-19T02:30:03.805Z,100845.28
2023-01-19T02:32:31.688Z,100851.56
2023-01-19T02:34:59.543Z,100859.44
2023-01-19T02:37:31.415Z,100860.41
2023-01-19T02:40:02.811Z,100849.94
2023-01-19T02:42:36.536Z,100868.22
2023-01-19T02:45:09.664Z,100850.66
2023-01-19T02:47:39.998Z,100847.09
2023-01-19T02:50:27.428Z,100859.31
2023-01-19T02:53:02.067Z,100849.03
2023-01-19T02:55:32.321Z,100852.47
2023-01-19T02:58:22.334Z,100860.25
2023-01-19T03:01:02.922Z,100859.44
2023-01-19T03:03:40.599Z,100864.63
2023-01-19T03:06:27.403Z,100867.31
2023-01-19T03:09:41.491Z,100867.41
2023-01-19T03:12:22.520Z,100862.97
2023-01-19T03:14:51.995Z,100861.28
2023-01-19T03:17:20.533Z,100867.09
2023-01-19T03:19:50.687Z,100859.53
2023-01-19T03:22:29.539Z,100866.56
2023-01-19T03:25:01.037Z,100870.94
2023-01-19T03:27:40.687Z,100870.94
2023-01-19T03:30:13.244Z,100871.88
2023-01-19T03:32:50.430Z,100867.72
2023-01-19T03:35:20.650Z,100875.72
2023-01-19T03:37:50.766Z,100879.28
2023-01-19T03:40:18.773Z,100875.03
2023-01-19T03:42:49.004Z,100875.81
2023-01-19T03:45:17.405Z,100876.78
2023-01-19T03:47:45.375Z,100871.81
2023-01-19T03:50:30.289Z,100877.06
2023-01-19T03:53:07.082Z,100865.84
2023-01-19T03:55:37.648Z,100887.84
2023-01-19T03:58:05.729Z,100875.63
2023-01-19T04:00:34.009Z,100871.22
2023-01-19T04:03:01.969Z,100886.03
2023-01-19T04:05:30.593Z,100894.72
2023-01-19T04:07:58.428Z,100905.94
2023-01-19T04:10:26.040Z,100898.00
2023-01-19T04:12:58.335Z,100902.34
2023-01-19T04:15:26.776Z,100911.97
2023-01-19T04:17:54.697Z,100902.06
2023-01-19T04:20:22.279Z,100916.88
2023-01-19T04:22:49.905Z,100899.25
2023-01-19T04:25:17.548Z,100890.56
2023-01-19T04:27:45.056Z,100902.66
2023-01-19T04:30:13.019Z,100894.91
2023-01-19T04:32:41.153Z,100895.66
2023-01-19T04:35:08.686Z,100904.34
2023-01-19T04:37:36.275Z,100905.28
2023-01-19T04:40:04.508Z,100914.69
2023-01-19T04:42:32.505Z,100918.94
2023-01-19T04:45:01.248Z,100915.31
2023-01-19T04:47:29.102Z,100908.09
2023-01-19T04:49:56.672Z,100905.59
2023-01-19T04:52:25.759Z,100913.41
2023-01-19T04:54:53.296Z,100915.13
2023-01-19T04:57:20.765Z,100918.53
2023-01-19T04:59:48.835Z,100916.00
2023-01-19T05:02:16.516Z,100922.88
2023-01-19T05:04:44.034Z,100924.50
2023-01-19T05:07:11.671Z,100921.88
2023-01-19T05:09:39.164Z,100928.06
2023-01-19T05:12:06.740Z,100919.47
2023-01-19T05:14:34.416Z,100915.19
2023-01-19T05:17:03.346Z,100934.56
2023-01-19T05:19:31.489Z,100939.03
2023-01-19T05:21:59.033Z,100922.47
2023-01-19T05:24:26.615Z,100935.66
2023-01-19T05:26:54.368Z,100937.31
2023-01-19T05:29:22.123Z,100938.97
2023-01-19T05:31:49.906Z,100947.72
2023-01-19T05:34:17.940Z,100954.00
2023-01-19T05:36:45.446Z,100963.44
2023-01-19T05:39:14.208Z,100960.25
2023-01-19T05:41:47.843Z,100965.38
2023-01-19T05:44:15.632Z,100971.59
2023-01-19T05:46:43.257Z,100973.38
2023-01-19T05:49:12.241Z,100976.84
2023-01-19T05:51:40.547Z,100971.66
2023-01-19T05:54:08.962Z,100975.25
2023-01-19T05:56:39.426Z,100988.41
2023-01-19T05:59:07.240Z,100985.72
2023-01-19T06:01:39.826Z,100970.94
2023-01-19T06:04:07.732Z,100991.09
2023-01-19T06:06:36.054Z,100986.63
2023-01-19T06:09:03.791Z,100994.41
2023-01-19T06:11:31.433Z,101004.03
2023-01-19T06:13:58.912Z,101003.91
2023-01-19T06:16:26.646Z,100998.72
2023-01-19T06:18:54.157Z,100998.66
2023-01-19T06:21:21.929Z,101009.03
2023-01-19T06:23:49.759Z,101021.03
2023-01-19T06:26:17.415Z,101022.66
2023-01-19T06:28:44.958Z,101005.09
2023-01-19T06:31:12.744Z,101017.34
2023-01-19T06:33:40.469Z,101013.81
2023-01-19T06:36:08.694Z,101015.47
2023-01-19T06:38:36.433Z,101022.44
2023-01-19T06:41:04.893Z,101024.09
2023-01-19T06:43:33.069Z,101023.09
2023-01-19T06:46:00.933Z,101021.25
2023-01-19T06:48:28.577Z,101023.81
2023-01-19T06:50:58.545Z,101019.28
2023-01-19T06:53:28.456Z,101019.28
2023-01-19T06:56:03.079Z,101018.94
2023-01-19T06:58:32.014Z,101009.19
2023-01-19T07:01:06.931Z,101003.66
2023-01-19T07:03:35.890Z,101009.72
2023-01-19T07:06:06.685Z,101000.00
2023-01-19T07:08:37.081Z,100998.66
2023-01-19T07:11:30.754Z,101007.25
2023-01-19T07:14:00.492Z,101011.69
2023-01-19T07:16:28.317Z,101004.56
2023-01-19T07:18:56.144Z,101014.06
2023-01-19T07:21:24.060Z,101022.91
2023-01-19T07:23:53.090Z,101016.06
2023-01-19T07:26:21.719Z,101022.19
2023-01-19T07:28:51.705Z,101027.59
2023-01-19T07:31:19.638Z,101027.59
2023-01-19T07:33:47.325Z,101032.72
2023-01-19T07:36:16.549Z,101032.72
2023-01-19T07:38:44.269Z,101042.09
2023-01-19T07:41:25.862Z,101045.47
2023-01-19T07:43:56.562Z,101049.03
2023-01-19T07:46:24.678Z,101050.28
2023-01-19T07:48:52.235Z,101057.75
2023-01-19T07:51:22.808Z,101049.56
2023-01-19T07:53:51.015Z,101055.44
2023-01-19T07:56:18.877Z,101054.25
2023-01-19T07:58:47.036Z,101049.34
2023-01-19T08:01:16.701Z,101049.16
2023-01-19T08:03:44.798Z,101049.34
2023-01-19T08:06:23.859Z,101040.41
2023-01-19T08:08:53.578Z,101036.66
2023-01-19T08:11:21.425Z,101041.69
2023-01-19T08:13:48.989Z,101040.75
2023-01-19T08:16:17.374Z,101043.06
2023-01-19T08:18:44.997Z,101054.31
2023-01-19T08:21:13.008Z,101038.22
2023-01-19T08:23:40.814Z,101026.66
2023-01-19T08:26:27.616Z,101038.84
2023-01-19T08:28:59.774Z,101037.22
2023-01-19T08:31:31.466Z,101042.19
2023-01-19T08:33:59.493Z,101039.03
2023-01-19T08:36:27.459Z,101041.56
2023-01-19T08:38:55.011Z,101035.81
2023-01-19T08:41:22.612Z,101038.19
2023-01-19T08:43:50.212Z,101024.88
2023-01-19T08:46:21.981Z,101029.00
2023-01-19T08:49:05.351Z,101028.31
2023-01-19T08:51:36.457Z,101025.75
2023-01-19T08:54:06.287Z,101030.16
2023-01-19T08:56:33.824Z,101030.97
2023-01-19T08:59:09.303Z,101025.88
2023-01-19T09:01:37.842Z,101030.97
2023-01-19T09:04:05.830Z,101042.28
2023-01-19T09:06:34.243Z,101032.50
2023-01-19T09:09:01.835Z,101030.47
2023-01-19T09:11:30.881Z,101033.63
2023-01-19T09:13:59.035Z,101028.63
2023-01-19T09:16:27.389Z,101030.41
2023-01-19T09:18:55.038Z,101020.84
2023-01-19T09:21:22.536Z,101037.22
2023-01-19T09:23:52.369Z,101029.16
2023-01-19T09:26:19.871Z,101032.06
2023-01-19T09:28:47.392Z,101028.50
2023-01-19T09:31:15.366Z,101021.38
2023-01-19T09:33:42.972Z,101015.13
2023-01-19T09:36:10.844Z,101026.50
2023-01-19T09:38:40.833Z,101013.19
2023-01-19T09:41:33.821Z,101012.53
2023-01-19T09:44:01.791Z,101002.91
2023-01-19T09:46:41.803Z,101010.88
2023-01-19T09:49:26.702Z,101019.13
2023-01-19T09:51:54.603Z,101026.00
2023-01-19T09:54:27.689Z,101014.50
2023-01-19T09:56:55.363Z,101020.78
2023-01-19T09:59:29.657Z,101012.13
2023-01-19T10:02:25.633Z,101015.19
2023-01-19T10:05:27.900Z,101013.84
2023-01-19T10:08:25.526Z,101008.56
2023-01-19T10:10:58.167Z,101004.72
2023-01-19T10:13:47.184Z,101007.34
2023-01-19T10:16:31.638Z,100999.94
2023-01-19T10:19:09.290Z,100988.34
2023-01-19T10:21:43.342Z,100984.56
2023-01-19T10:24:22.968Z,100986.00
2023-01-19T10:26:52.989Z,100979.72
2023-01-19T10:29:34.632Z,100969.13
2023-01-19T10:32:12.657Z,100975.22
2023-01-19T10:34:41.747Z,100973.66
2023-01-19T10:37:18.575Z,100967.53
2023-01-19T10:39:53.946Z,100963.69
2023-01-19T10:42:21.694Z,100959.53
2023-01-19T10:44:49.814Z,100972.00
2023-01-19T10:47:20.232Z,100977.66
2023-01-19T10:49:49.146Z,100969.88
2023-01-19T10:52:37.619Z,100964.66
2023-01-19T10:55:08.070Z,100961.84
2023-01-19T10:57:39.518Z,100965.97
2023-01-19T11:00:28.259Z,100974.88
2023-01-19T11:02:55.843Z,100962.03
2023-01-19T11:05:25.770Z,100956.00
2023-01-19T11:07:53.655Z,100953.41
2023-01-19T11:10:28.189Z,100954.13
2023-01-19T11:13:15.846Z,100962.25
2023-01-19T11:16:00.375Z,100953.13
2023-01-19T11:18:30.931Z,100953.50
2023-01-19T11:21:08.017Z,100957.28
2023-01-19T11:27:51.568Z,100950.00
2023-01-19T11:30:26.088Z,100956.28
2023-01-19T11:32:54.585Z,100942.91
2023-01-19T11:35:38.121Z,100944.56
2023-01-19T11:38:19.216Z,100951.28
2023-01-19T11:40:58.759Z,100946.50
2023-01-19T11:43:43.590Z,100944.47
2023-01-19T11:46:17.816Z,100943.63
2023-01-19T11:49:08.488Z,100950.34
2023-01-19T11:52:02.381Z,100943.97
2023-01-19T11:54:35.875Z,100940.88
2023-01-19T11:57:16.147Z,100932.28
2023-01-19T11:59:45.171Z,100930.88
2023-01-19T12:02:43.862Z,100951.88
2023-01-19T12:05:17.041Z,100941.28
2023-01-19T12:07:47.927Z,100949.94
2023-01-19T12:10:31.773Z,100948.50
2023-01-19T12:13:00.757Z,100936.00
2023-01-19T12:15:34.237Z,100946.38
2023-01-19T12:18:03.226Z,100958.84
2023-01-19T12:20:36.727Z,100950.19
2023-01-19T12:23:29.139Z,100957.34
2023-01-19T12:26:02.147Z,100952.03
2023-01-19T12:28:32.998Z,100946.84
2023-01-19T12:31:02.813Z,100959.53
2023-01-19T12:33:34.674Z,100960.88
2023-01-19T12:36:07.113Z,100964.56
2023-01-19T12:38:52.865Z,100973.09
2023-01-19T12:41:28.157Z,100961.38
2023-01-19T12:44:16.605Z,100963.31
2023-01-19T12:47:08.149Z,100962.78
2023-01-19T12:49:41.624Z,100961.31
2023-01-19T12:52:31.148Z,100967.84
2023-01-19T12:55:07.654Z,100972.69
2023-01-19T12:57:40.162Z,100963.72
2023-01-19T13:00:27.791Z,100970.81
2023-01-19T13:03:21.387Z,100960.47
2023-01-19T13:05:56.836Z,100954.25
2023-01-19T13:08:30.536Z,100968.72
2023-01-19T13:11:05.541Z,100968.94
2023-01-19T13:13:38.071Z,100962.97
2023-01-19T13:16:18.264Z,100956.19
2023-01-19T13:18:48.637Z,100957.44
2023-01-19T13:21:28.063Z,100954.91
2023-01-19T13:23:58.550Z,100954.91
2023-01-19T13:26:30.975Z,100960.50
2023-01-19T13:29:16.107Z,100963.81
2023-01-19T13:31:44.841Z,100970.28
2023-01-19T13:34:15.074Z,100973.00
2023-01-19T13:36:46.550Z,100973.31
2023-01-19T13:39:20.079Z,100975.97
2023-01-19T13:41:49.185Z,100979.13
2023-01-19T13:44:24.158Z,100980.69
2023-01-19T13:46:54.290Z,100993.22
2023-01-19T13:49:33.292Z,100994.41
2023-01-19T13:52:30.628Z,100987.63
2023-01-19T13:55:03.081Z,100982.78
2023-01-19T13:57:40.864Z,100982.16
2023-01-19T14:00:12.779Z,100992.22
2023-01-19T14:02:40.559Z,100999.56
2023-01-19T14:05:28.438Z,100992.84
2023-01-19T14:08:08.945Z,100997.47
2023-01-19T14:10:48.633Z,101003.00
2023-01-19T14:13:20.001Z,101002.63
2023-01-19T14:15:50.228Z,101000.97
2023-01-19T14:18:20.044Z,101001.19
2023-01-19T14:21:12.449Z,101008.31
2023-01-19T14:23:47.832Z,100992.97
2023-01-19T14:26:49.041Z,101014.25
2023-01-19T14:29:19.426Z,101006.47
2023-01-19T14:32:00.370Z,101003.19
2023-01-19T14:34:45.421Z,101014.06
2023-01-19T14:37:21.844Z,101012.47
2023-01-19T14:39:52.892Z,101017.88
2023-01-19T14:42:26.084Z,101016.97
2023-01-19T14:44:56.228Z,101005.00
2023-01-19T14:47:29.807Z,101019.00
2023-01-19T14:50:02.315Z,101016.69
2023-01-19T14:52:42.166Z,101016.06
2023-01-19T14:55:28.231Z,101034.84
2023-01-19T14:57:55.728Z,101026.25
2023-01-19T15:00:23.751Z,101032.47
2023-01-19T15:02:51.245Z,101040.59
2023-01-19T15:05:19.384Z,101031.00
2023-01-19T15:07:47.540Z,101042.41
2023-01-19T15:10:23.825Z,101043.53
2023-01-19T15:12:54.251Z,101045.34
2023-01-19T15:15:29.539Z,101053.25
2023-01-19T15:17:58.592Z,101041.16
2023-01-19T15:20:26.191Z,101052.69
2023-01-19T15:22:53.752Z,101055.44
2023-01-19T15:25:25.814Z,101069.56
2023-01-19T15:27:57.931Z,101063.66
2023-01-19T15:30:29.738Z,101077.66
2023-01-19T15:32:58.967Z,101068.06
2023-01-19T15:35:26.727Z,101074.34
2023-01-19T15:37:54.685Z,101083.16
2023-01-19T15:40:23.412Z,101083.41
2023-01-19T15:42:51.032Z,101087.91
2023-01-19T15:45:18.509Z,101092.44
2023-01-19T15:47:46.061Z,101089.97
2023-01-19T15:50:13.642Z,101096.09
2023-01-19T15:52:41.198Z,101097.00
2023-01-19T15:55:11.901Z,101098.00
2023-01-19T15:57:39.417Z,101088.63
2023-01-19T16:00:07.944Z,101087.84
2023-01-19T16:02:37.940Z,101100.22
2023-01-19T16:05:06.209Z,101109.25
2023-01-19T16:07:34.708Z,101096.38
2023-01-19T16:10:02.396Z,101097.22
2023-01-19T16:12:30.144Z,101100.78
2023-01-19T16:14:57.611Z,101099.91
2023-01-19T16:17:25.133Z,101106.97
2023-01-19T16:19:52.619Z,101111.44
2023-01-19T16:22:20.154Z,101112.47
2023-01-19T16:24:47.705Z,101117.19
2023-01-19T16:27:15.211Z,101123.31
2023-01-19T16:29:42.669Z,101118.91
2023-01-19T16:32:10.151Z,101111.28
2023-01-19T16:34:37.648Z,101116.53
2023-01-19T16:37:05.178Z,101117.53
2023-01-19T16:39:32.791Z,101117.00
2023-01-19T16:42:00.588Z,101121.69
2023-01-19T16:44:28.234Z,101124.38
2023-01-19T16:46:55.774Z,101132.28
2023-01-19T16:49:26.804Z,101120.03
2023-01-19T16:51:56.215Z,101131.53
2023-01-19T16:54:26.189Z,101129.84
2023-01-19T16:56:55.548Z,101129.03
2023-01-19T16:59:23.440Z,101118.66
2023-01-19T17:01:52.142Z,101115.41
2023-01-19T17:04:22.055Z,101125.03
2023-01-19T17:06:50.234Z,101122.41
2023-01-19T17:09:18.002Z,101123.31
2023-01-19T17:11:46.174Z,101125.34
2023-01-19T17:14:16.684Z,101133.22
2023-01-19T17:16:44.359Z,101128.16
2023-01-19T17:19:17.444Z,101136.06
2023-01-19T17:21:48.707Z,101136.91
2023-01-19T17:24:17.285Z,101136.09
2023-01-19T17:26:46.066Z,101136.34
2023-01-19T17:29:13.553Z,101148.53
2023-01-19T17:31:41.191Z,101142.50
2023-01-19T17:34:09.934Z,101129.63
2023-01-19T17:36:38.068Z,101128.03
2023-01-19T17:39:08.297Z,101116.75
2023-01-19T17:41:36.133Z,101125.47
2023-01-19T17:44:05.567Z,101119.34
2023-01-19T17:46:36.698Z,101116.75
2023-01-19T17:49:05.940Z,101126.34
2023-01-19T17:51:34.160Z,101115.13
2023-01-19T17:54:01.993Z,101129.19
2023-01-19T17:56:33.188Z,101117.03
2023-01-19T17:59:00.736Z,101116.19
2023-01-19T18:01:30.978Z,101132.69
2023-01-19T18:03:59.262Z,101136.34
2023-01-19T18:06:27.089Z,101139.03
2023-01-19T18:08:54.601Z,101145.19
2023-01-19T18:11:22.386Z,101134.75
2023-01-19T18:13:50.823Z,101138.22
2023-01-19T18:16:29.072Z,101138.06
2023-01-19T18:18:57.528Z,101133.88
2023-01-19T18:21:28.876Z,101136.59
2023-01-19T18:24:04.989Z,101130.47
2023-01-19T18:26:34.781Z,101132.22
2023-01-19T18:29:02.463Z,101132.19
2023-01-19T18:31:30.431Z,101130.53
2023-01-19T18:33:58.233Z,101129.63
2023-01-19T18:36:25.895Z,101139.31
2023-01-19T18:38:53.782Z,101144.81
2023-01-19T18:41:22.131Z,101144.88
2023-01-19T18:43:50.274Z,101146.63
2023-01-19T18:46:19.116Z,101157.13
2023-01-19T18:48:46.678Z,101168.66
2023-01-19T18:51:15.874Z,101158.31
2023-01-19T18:53:43.899Z,101147.81
2023-01-19T18:56:14.358Z,101147.00
2023-01-19T18:58:44.919Z,101141.78
2023-01-19T19:01:24.603Z,101154.19
2023-01-19T19:03:52.991Z,101141.28
2023-01-19T19:06:21.466Z,101145.81
2023-01-19T19:08:50.972Z,101144.16
2023-01-19T19:11:20.180Z,101152.00
2023-01-19T19:14:00.610Z,101149.31
2023-01-19T19:16:28.946Z,101138.13
2023-01-19T19:18:56.966Z,101132.03
2023-01-19T19:21:25.571Z,101135.59
2023-01-19T19:23:57.779Z,101127.72
2023-01-19T19:26:28.446Z,101143.38
2023-01-19T19:28:56.510Z,101136.50
2023-01-19T19:31:26.235Z,101139.03
2023-01-19T19:33:55.849Z,101150.38
2023-01-19T19:36:24.455Z,101144.22
2023-01-19T19:38:52.076Z,101148.59
2023-01-19T19:41:27.089Z,101146.09
2023-01-19T19:43:55.741Z,101142.50
2023-01-19T19:46:24.556Z,101138.22
2023-01-19T19:48:53.057Z,101135.56
2023-01-19T19:51:27.223Z,101138.28
2023-01-19T19:53:56.897Z,101148.66
2023-01-19T19:56:25.097Z,101152.19
2023-01-19T19:58:54.685Z,101146.91
2023-01-19T20:01:26.767Z,101151.34
2023-01-19T20:03:55.637Z,101148.81
2023-01-19T20:06:25.063Z,101149.78
2023-01-19T20:08:54.423Z,101138.44
2023-01-19T20:11:25.447Z,101138.56
2023-01-19T20:13:53.311Z,101146.47
2023-01-19T20:16:23.191Z,101144.81
2023-01-19T20:18:54.258Z,101152.50
2023-01-19T20:21:25.690Z,101159.50
2023-01-19T20:23:54.950Z,101175.22
2023-01-19T20:26:26.557Z,101164.72
2023-01-19T20:28:56.750Z,101167.50
2023-01-19T20:35:28.166Z,101171.84
2023-01-19T20:37:55.875Z,101169.16
2023-01-19T20:40:23.455Z,101170.03
2023-01-19T20:42:50.991Z,101176.13
2023-01-19T20:45:19.753Z,101187.41
2023-01-19T20:47:47.297Z,101180.47
2023-01-19T20:50:14.812Z,101176.94
2023-01-19T20:52:42.296Z,101183.84
2023-01-19T20:55:10.557Z,101184.84
2023-01-19T20:57:38.124Z,101183.09
2023-01-19T21:00:06.266Z,101180.41
2023-01-19T21:02:33.944Z,101180.47
2023-01-19T21:05:01.500Z,101183.91
2023-01-19T21:07:29.401Z,101193.69
2023-01-19T21:09:56.939Z,101192.72
2023-01-19T21:12:24.551Z,101194.63
2023-01-19T21:14:52.077Z,101196.41
2023-01-19T21:17:19.579Z,101198.97
2023-01-19T21:19:47.195Z,101197.31
2023-01-19T21:22:14.893Z,101201.72
2023-01-19T21:24:44.449Z,101196.56
2023-01-19T21:27:11.972Z,101197.53
2023-01-19T21:29:40.908Z,101201.91
2023-01-19T21:32:08.472Z,101208.00
2023-01-19T21:34:36.018Z,101208.91
2023-01-19T21:37:03.522Z,101210.72
2023-01-19T21:39:31.090Z,101207.38
2023-01-19T21:41:58.657Z,101202.13
2023-01-19T21:44:26.324Z,101201.28
2023-01-19T21:46:55.584Z,101195.19
2023-01-19T21:49:23.111Z,101200.44
2023-01-19T21:51:50.769Z,101188.22
2023-01-19T21:54:18.976Z,101191.72
2023-01-19T21:56:46.557Z,101190.09
2023-01-19T21:59:15.568Z,101178.75
2023-01-19T22:01:45.217Z,101191.13
2023-01-19T22:04:31.239Z,101198.06
2023-01-19T22:06:58.806Z,101195.38
2023-01-19T22:09:26.331Z,101195.31
2023-01-19T22:11:53.918Z,101189.28
2023-01-19T22:14:21.478Z,101193.56
2023-01-19T22:16:49.034Z,101199.81
2023-01-19T22:19:16.538Z,101208.63
2023-01-19T22:21:44.109Z,101200.72
2023-01-19T22:24:12.918Z,101201.56
2023-01-19T22:26:40.455Z,101190.13
2023-01-19T22:29:17.612Z,101204.16
2023-01-19T22:31:45.909Z,101207.69
2023-01-19T22:34:14.566Z,101204.28
2023-01-19T22:36:42.149Z,101205.13
2023-01-19T22:39:12.057Z,101204.28
2023-01-19T22:41:45.003Z,101214.75
2023-01-19T22:44:15.111Z,101219.16
2023-01-19T22:46:43.414Z,101226.28
2023-01-19T22:49:13.446Z,101209.81
2023-01-19T22:51:41.397Z,101222.06
2023-01-19T22:54:09.147Z,101218.44
2023-01-19T22:56:38.821Z,101222.97
2023-01-19T22:59:06.805Z,101229.03
2023-01-19T23:01:40.194Z,101235.88
2023-01-19T23:04:14.287Z,101240.22
2023-01-19T23:06:42.348Z,101236.69
2023-01-19T23:09:14.771Z,101223.72
2023-01-19T23:11:44.029Z,101240.31
2023-01-19T23:14:17.764Z,101237.69
2023-01-19T23:16:47.309Z,101242.94
2023-01-19T23:19:17.130Z,101245.38
2023-01-19T23:21:44.910Z,101238.41
2023-01-19T23:24:12.717Z,101224.50
2023-01-19T23:26:40.361Z,101220.94
2023-01-19T23:29:12.323Z,101234.91
2023-01-19T23:31:44.120Z,101234.13
2023-01-19T23:34:12.580Z,101245.38
2023-01-19T23:36:41.940Z,101233.19
2023-01-19T23:39:18.276Z,101235.69
2023-01-19T23:41:46.401Z,101239.19
2023-01-19T23:44:14.119Z,101229.59
2023-01-19T23:46:41.914Z,101243.63
2023-01-19T23:49:09.523Z,101249.69
2023-01-19T23:51:37.065Z,101247.09
2023-01-19T23:54:04.709Z,101250.63
2023-01-19T23:56:35.265Z,101247.97
2023-01-19T23:59:07.739Z,101241.81
